Time;durP1;ratioP1;P1;durP2;ratioP2;P2;SDS_P1;SDS_P2;PMS_P1;PMS_P2;Temp;Humidity;BMP_temperature;BMP_pressure;BME280_temperature;BME280_humidity;BME280_pressure;Samples;Min_cycle;Max_cycle;Signal;HPM_P1;HPM_P2
2021/06/19 07:54:19;;;;;;;18.38;13.48;;;18.30;99.90;;;;;;5080084;27;20058;-80
2021/06/19 07:56:47;;;;;;;14.93;12.23;;;18.30;99.90;;;;;;5088612;28;20075;-80
2021/06/19 07:59:16;;;;;;;10.70;9.45;;;18.30;99.90;;;;;;5081624;28;20050;-80
2021/06/19 08:01:42;;;;;;;10.27;8.48;;;18.30;99.90;;;;;;5068599;28;20080;-81
2021/06/19 08:04:07;;;;;;;8.05;7.25;;;18.30;99.90;;;;;;5070267;28;20522;-80
2021/06/19 08:06:33;;;;;;;6.90;4.50;;;18.30;99.90;;;;;;5085439;28;20126;-81
2021/06/19 08:08:59;;;;;;;6.88;3.40;;;18.30;99.90;;;;;;5089307;28;20142;-80
2021/06/19 08:11:26;;;;;;;4.18;3.67;;;18.30;99.90;;;;;;5109644;28;20486;-81
2021/06/19 08:13:55;;;;;;;4.10;3.70;;;18.30;99.90;;;;;;5088351;28;20091;-81
2021/06/19 08:16:21;;;;;;;5.15;3.80;;;18.30;99.90;;;;;;5063913;28;20075;-81
2021/06/19 08:18:48;;;;;;;7.68;4.47;;;18.30;99.90;;;;;;5054070;28;20040;-81
2021/06/19 08:21:15;;;;;;;5.80;4.93;;;18.30;99.90;;;;;;5077890;28;20055;-80
2021/06/19 08:23:41;;;;;;;6.35;5.13;;;18.30;99.90;;;;;;5070126;28;20043;-80
2021/06/19 08:26:07;;;;;;;6.28;5.43;;;18.30;99.90;;;;;;5062170;28;20135;-81
2021/06/19 08:28:34;;;;;;;7.88;6.20;;;18.20;99.90;;;;;;5081099;28;20051;-81
2021/06/19 08:31:02;;;;;;;7.63;6.47;;;18.20;99.90;;;;;;5059814;28;20087;-80
2021/06/19 08:33:28;;;;;;;8.48;6.72;;;18.30;99.90;;;;;;5057284;28;20056;-81
2021/06/19 08:35:53;;;;;;;10.38;7.72;;;18.20;99.90;;;;;;5091777;28;20047;-80
2021/06/19 08:38:19;;;;;;;8.80;7.90;;;18.20;99.90;;;;;;5072862;28;20044;-81
2021/06/19 08:40:45;;;;;;;8.13;7.38;;;18.20;99.90;;;;;;5065323;28;20063;-80
2021/06/19 08:43:11;;;;;;;9.98;7.85;;;18.20;99.90;;;;;;5087483;28;20418;-81
2021/06/19 08:45:40;;;;;;;11.15;8.13;;;18.30;99.90;;;;;;5056275;28;20113;-81
2021/06/19 08:48:06;;;;;;;8.90;8.07;;;18.30;99.90;;;;;;5040556;28;20102;-81
2021/06/19 08:50:32;;;;;;;9.55;8.65;;;18.30;99.90;;;;;;5055677;28;20044;-81
2021/06/19 08:52:59;;;;;;;10.15;9.15;;;18.30;99.90;;;;;;5064717;28;20081;-81
2021/06/19 08:55:26;;;;;;;9.93;8.85;;;18.30;99.90;;;;;;5073230;28;20051;-81
2021/06/19 08:57:52;;;;;;;8.57;7.78;;;18.30;99.90;;;;;;5091510;28;20055;-81
2021/06/19 09:00:19;;;;;;;10.93;8.57;;;18.30;99.90;;;;;;5072274;28;20415;-81
2021/06/19 09:02:47;;;;;;;11.98;7.82;;;18.30;99.90;;;;;;5090609;28;20513;-81
2021/06/19 09:05:23;;;;;;;8.43;7.63;;;18.40;99.90;;;;;;5090988;28;20044;-81
2021/06/19 09:07:53;;;;;;;9.63;8.77;;;18.50;99.90;;;;;;5090290;28;20044;-81
2021/06/19 09:10:35;;;;;;;9.38;7.15;;;18.50;99.90;;;;;;5056491;28;20132;-81
2021/06/19 09:13:05;;;;;;;9.57;8.00;;;18.40;99.90;;;;;;5072489;28;20052;-80
2021/06/19 09:15:34;;;;;;;9.57;7.75;;;18.40;99.90;;;;;;5090246;28;20119;-81
2021/06/19 09:18:08;;;;;;;10.43;8.30;;;18.40;99.90;;;;;;5072976;28;20063;-81
2021/06/19 09:21:02;;;;;;;10.75;8.85;;;18.40;99.90;;;;;;5090961;28;20051;-81
2021/06/19 09:23:43;;;;;;;8.23;7.25;;;18.60;99.90;;;;;;5070903;28;20044;-81
2021/06/19 09:26:21;;;;;;;9.38;8.15;;;18.60;99.90;;;;;;5073137;28;20602;-81
2021/06/19 09:29:06;;;;;;;9.48;8.40;;;18.70;99.90;;;;;;5072239;28;20044;-80
2021/06/19 09:31:52;;;;;;;11.32;8.70;;;18.70;99.90;;;;;;5075579;28;20070;-81
2021/06/19 09:34:28;;;;;;;7.88;7.18;;;18.80;99.90;;;;;;5085109;28;20053;-81
2021/06/19 09:37:03;;;;;;;8.32;5.10;;;18.80;99.90;;;;;;5075287;28;20078;-81
2021/06/19 09:39:31;;;;;;;6.80;5.43;;;18.80;99.90;;;;;;5062027;28;20051;-81
2021/06/19 09:42:03;;;;;;;5.85;4.55;;;18.90;99.90;;;;;;5049220;28;20056;-81
2021/06/19 09:44:47;;;;;;;12.90;4.65;;;18.90;99.90;;;;;;5040854;28;20071;-80
2021/06/19 09:47:17;;;;;;;4.28;3.85;;;18.90;99.90;;;;;;5069022;28;20090;-80
2021/06/19 09:49:46;;;;;;;6.00;4.80;;;18.90;99.90;;;;;;5052725;28;20146;-81
2021/06/19 09:52:14;;;;;;;5.55;4.72;;;18.90;99.90;;;;;;5060525;28;20134;-81
2021/06/19 09:54:41;;;;;;;5.20;4.10;;;19.00;99.90;;;;;;5063542;28;20048;-81
2021/06/19 09:57:40;;;;;;;4.90;4.40;;;19.00;99.90;;;;;;5050610;28;20048;-81
2021/06/19 10:00:09;;;;;;;7.57;4.97;;;18.90;99.90;;;;;;5064030;28;20071;-81
2021/06/19 10:02:35;;;;;;;7.10;6.40;;;18.90;99.90;;;;;;5074590;28;20048;-81
2021/06/19 10:05:01;;;;;;;8.60;5.88;;;18.90;99.90;;;;;;5058206;28;20048;-82
2021/06/19 10:07:29;;;;;;;6.50;4.85;;;18.90;99.90;;;;;;5056803;28;20079;-81
2021/06/19 10:09:56;;;;;;;9.38;6.40;;;19.00;99.90;;;;;;5079441;28;20491;-80
2021/06/19 10:12:28;;;;;;;7.85;6.63;;;19.00;99.90;;;;;;5029547;28;20055;-80
2021/06/19 10:14:57;;;;;;;8.65;6.55;;;19.00;99.90;;;;;;5053003;28;20075;-80
2021/06/19 10:17:30;;;;;;;7.85;6.15;;;18.90;99.90;;;;;;5089507;28;20048;-81
2021/06/19 10:19:57;;;;;;;7.20;6.50;;;18.90;99.90;;;;;;5089625;28;20134;-81
2021/06/19 10:22:31;;;;;;;6.93;5.72;;;18.90;99.90;;;;;;5071195;28;20044;-81
2021/06/19 10:25:00;;;;;;;6.57;5.30;;;19.00;99.90;;;;;;5054885;28;20044;-81
2021/06/19 10:27:29;;;;;;;6.93;6.15;;;18.90;99.90;;;;;;5071143;28;20048;-81
2021/06/19 10:29:57;;;;;;;6.50;5.63;;;18.90;99.90;;;;;;5071530;28;20498;-81
2021/06/19 10:32:46;;;;;;;7.07;6.03;;;18.90;99.90;;;;;;5069726;28;20073;-81
2021/06/19 10:35:19;;;;;;;8.45;6.60;;;18.80;99.90;;;;;;5057990;28;20044;-81
2021/06/19 10:37:48;;;;;;;9.10;6.30;;;18.80;99.90;;;;;;5045200;28;20044;-81
2021/06/19 10:40:21;;;;;;;8.18;6.30;;;18.90;99.90;;;;;;5100249;28;20059;-80
2021/06/19 10:42:49;;;;;;;8.77;6.78;;;19.00;99.90;;;;;;5091524;28;20131;-81
2021/06/19 10:45:27;;;;;;;11.43;8.20;;;18.90;99.90;;;;;;5077507;28;20118;-81
2021/06/19 10:48:08;;;;;;;10.32;7.97;;;18.80;99.90;;;;;;5069390;28;20051;-81
2021/06/19 10:50:38;;;;;;;7.72;7.00;;;18.80;99.90;;;;;;5071040;28;20056;-81
2021/06/19 10:53:06;;;;;;;8.68;7.72;;;18.70;99.90;;;;;;5088908;28;20048;-81
2021/06/19 10:55:33;;;;;;;8.68;7.60;;;18.60;99.90;;;;;;5070831;28;20462;-81
2021/06/19 10:58:03;;;;;;;9.52;8.05;;;18.50;99.90;;;;;;5087438;28;20626;-81
2021/06/19 11:00:35;;;;;;;8.98;8.13;;;18.50;99.90;;;;;;5061801;28;20048;-81
2021/06/19 11:03:03;;;;;;;10.02;8.40;;;18.50;99.90;;;;;;5068716;28;20048;-81
2021/06/19 11:05:44;;;;;;;13.77;7.95;;;18.40;99.90;;;;;;5070825;28;20142;-81
2021/06/19 11:08:12;;;;;;;10.63;7.80;;;18.30;99.90;;;;;;5087340;28;20131;-81
2021/06/19 11:10:47;;;;;;;9.90;7.45;;;18.30;99.90;;;;;;5070748;28;20049;-81
2021/06/19 11:13:28;;;;;;;9.10;7.13;;;18.30;99.90;;;;;;5099298;28;20046;-81
2021/06/19 11:15:55;;;;;;;8.63;7.05;;;18.30;99.90;;;;;;5070758;28;20040;-81
2021/06/19 11:18:52;;;;;;;9.60;8.25;;;18.30;99.90;;;;;;5062710;28;20044;-81
2021/06/19 11:21:30;;;;;;;11.80;8.23;;;18.30;99.90;;;;;;5071244;28;20130;-81
2021/06/19 11:24:02;;;;;;;9.75;8.00;;;18.30;99.90;;;;;;5090179;28;20047;-80
2021/06/19 11:27:02;;;;;;;11.52;7.88;;;18.30;99.90;;;;;;5086359;28;20830;-81
2021/06/19 11:29:34;;;;;;;14.13;8.93;;;18.30;99.90;;;;;;5061632;28;20055;-81
2021/06/19 11:32:19;;;;;;;;;;;18.30;99.90;;;;;;5088167;28;20036;-81
2021/06/19 11:34:44;;;;;;;8.10;6.80;;;18.30;99.90;;;;;;5072744;28;19916;-81
2021/06/19 11:37:10;;;;;;;9.27;7.50;;;18.20;99.90;;;;;;5057710;28;20440;-81
2021/06/19 11:39:36;;;;;;;10.57;7.93;;;18.20;99.90;;;;;;5067932;28;20055;-81
2021/06/19 11:42:03;;;;;;;12.68;7.82;;;18.20;99.90;;;;;;5070546;28;20043;-87
2021/06/19 11:44:32;;;;;;;10.68;7.80;;;18.10;99.90;;;;;;5039090;28;20059;-87
2021/06/19 11:47:03;;;;;;;11.48;8.18;;;18.10;99.90;;;;;;5041139;28;20155;-86
2021/06/19 11:49:32;;;;;;;10.47;7.77;;;18.10;99.90;;;;;;5060233;28;20047;-86
2021/06/19 11:51:59;;;;;;;10.63;8.10;;;18.00;99.90;;;;;;5060376;28;20431;-87
2021/06/19 11:54:26;;;;;;;10.88;9.40;;;17.90;99.90;;;;;;5060289;28;20055;-87
2021/06/19 11:56:54;;;;;;;9.23;8.13;;;18.00;99.90;;;;;;5027200;28;20138;-87
2021/06/19 11:59:20;;;;;;;10.30;7.75;;;18.00;99.90;;;;;;5059994;28;20080;-87
2021/06/19 12:01:50;;;;;;;11.30;6.93;;;18.00;99.90;;;;;;5040167;28;20143;-87
2021/06/19 12:04:21;;;;;;;9.45;6.18;;;18.00;99.90;;;;;;5075500;28;20048;-81
2021/06/19 12:06:56;;;;;;;8.80;5.65;;;17.90;99.90;;;;;;5073317;28;20040;-81
2021/06/19 12:09:25;;;;;;;10.43;5.95;;;17.80;99.90;;;;;;5073524;28;20094;-81
2021/06/19 12:12:20;;;;;;;7.43;6.20;;;17.80;99.90;;;;;;5094946;28;20044;-81
2021/06/19 12:14:46;;;;;;;8.05;5.85;;;17.80;99.90;;;;;;5062553;28;20052;-81
2021/06/19 12:17:13;;;;;;;6.72;5.07;;;17.70;99.90;;;;;;5073151;28;20066;-81
2021/06/19 12:19:44;;;;;;;7.32;5.88;;;17.70;99.90;;;;;;5073522;28;20122;-80
2021/06/19 12:22:15;;;;;;;8.93;6.05;;;17.70;99.90;;;;;;5073356;28;20052;-80
2021/06/19 12:24:43;;;;;;;5.90;5.00;;;17.80;99.90;;;;;;5091867;28;20499;-81
2021/06/19 12:27:20;;;;;;;7.85;5.80;;;17.80;99.90;;;;;;5091427;28;20396;-81
2021/06/19 12:29:53;;;;;;;7.85;5.43;;;17.80;99.90;;;;;;5105153;28;20118;-81
2021/06/19 12:32:31;;;;;;;6.85;5.60;;;17.70;99.90;;;;;;5088073;28;20044;-80
2021/06/19 12:35:06;;;;;;;8.82;5.57;;;17.70;99.90;;;;;;5073549;28;20051;-81
2021/06/19 12:37:38;;;;;;;9.48;5.85;;;17.70;99.90;;;;;;5091157;28;20044;-81
2021/06/19 12:40:08;;;;;;;7.47;5.47;;;17.70;99.90;;;;;;5056481;28;20411;-81
2021/06/19 12:42:46;;;;;;;8.18;5.22;;;17.70;99.90;;;;;;5073133;28;20052;-81
2021/06/19 12:45:13;;;;;;;7.78;5.65;;;17.80;99.90;;;;;;5101671;28;20066;-81
2021/06/19 12:47:44;;;;;;;6.93;6.05;;;17.80;99.90;;;;;;5072648;28;20044;-80
2021/06/19 12:50:12;;;;;;;10.10;6.45;;;17.90;99.90;;;;;;5091155;28;20515;-81
2021/06/19 12:53:14;;;;;;;9.82;6.80;;;17.90;99.90;;;;;;5055718;28;20112;-81
2021/06/19 12:55:44;;;;;;;7.60;5.82;;;17.90;99.90;;;;;;5078479;28;20079;-80
2021/06/19 12:58:15;;;;;;;6.72;6.03;;;18.00;99.90;;;;;;5071694;28;20044;-81
2021/06/19 13:00:59;;;;;;;8.75;5.95;;;17.90;99.90;;;;;;5082904;28;20122;-81
2021/06/19 13:03:38;;;;;;;7.15;6.30;;;17.90;99.90;;;;;;5058201;28;20411;-81
2021/06/19 13:06:04;;;;;;;8.55;6.35;;;17.90;99.90;;;;;;5073013;28;20495;-81
2021/06/19 13:08:31;;;;;;;8.93;6.65;;;17.90;99.90;;;;;;5035361;28;20056;-80
2021/06/19 13:11:00;;;;;;;9.02;6.80;;;17.80;99.90;;;;;;5070778;28;20050;-81
2021/06/19 13:13:43;;;;;;;8.10;6.28;;;17.80;99.90;;;;;;5090616;28;20048;-80
2021/06/19 13:16:11;;;;;;;9.48;7.07;;;17.80;99.90;;;;;;5072689;28;20063;-80
2021/06/19 13:18:38;;;;;;;8.48;6.53;;;17.80;99.90;;;;;;5035252;28;20428;-80
2021/06/19 13:21:08;;;;;;;8.23;6.45;;;17.80;99.90;;;;;;5071740;28;20055;-80
2021/06/19 13:23:35;;;;;;;8.10;6.00;;;17.80;99.90;;;;;;5072218;28;20036;-81
2021/06/19 13:26:07;;;;;;;8.23;6.72;;;17.80;99.90;;;;;;5053995;28;20044;-81
2021/06/19 13:28:46;;;;;;;8.50;6.38;;;17.80;99.90;;;;;;5089921;28;20055;-81
2021/06/19 13:31:18;;;;;;;10.25;6.00;;;17.90;99.90;;;;;;5089909;28;20040;-81
2021/06/19 13:33:53;;;;;;;10.45;6.95;;;17.90;99.90;;;;;;5079865;28;20048;-80
2021/06/19 13:36:23;;;;;;;9.70;7.28;;;17.90;99.90;;;;;;5096294;28;20137;-81
2021/06/19 13:38:57;;;;;;;8.55;6.50;;;17.90;99.90;;;;;;5090667;28;20051;-81
2021/06/19 13:41:49;;;;;;;7.47;6.50;;;18.00;99.90;;;;;;5079248;28;20090;-81
2021/06/19 13:44:18;;;;;;;9.15;7.07;;;18.00;99.90;;;;;;5066686;28;20051;-81
2021/06/19 13:46:45;;;;;;;9.65;7.15;;;18.10;99.90;;;;;;5089436;28;20048;-81
2021/06/19 13:49:14;;;;;;;9.00;6.93;;;18.10;99.90;;;;;;5091014;28;20041;-81
2021/06/19 13:51:43;;;;;;;9.75;7.38;;;18.00;99.90;;;;;;5091547;28;20047;-81
2021/06/19 13:54:09;;;;;;;8.75;6.43;;;18.00;99.90;;;;;;5060963;28;20068;-81
2021/06/19 13:56:35;;;;;;;9.95;6.93;;;18.00;99.90;;;;;;5086550;28;20110;-81
2021/06/19 13:59:01;;;;;;;8.07;6.72;;;18.00;99.90;;;;;;5047952;28;20056;-80
2021/06/19 14:01:27;;;;;;;11.00;7.22;;;18.00;99.90;;;;;;5036581;28;20045;-81
2021/06/19 14:03:55;;;;;;;9.60;7.05;;;18.00;99.90;;;;;;5028577;28;20074;-80
2021/06/19 14:06:22;;;;;;;16.95;9.57;;;17.90;99.90;;;;;;5088450;28;20058;-81
2021/06/19 14:08:52;;;;;;;18.75;9.48;;;17.90;99.90;;;;;;5080745;28;20044;-80
2021/06/19 14:11:21;;;;;;;16.13;9.75;;;17.90;99.90;;;;;;5076691;28;20148;-80
2021/06/19 14:13:47;;;;;;;16.48;10.73;;;17.90;99.90;;;;;;5063596;28;20040;-81
2021/06/19 14:16:13;;;;;;;12.52;9.90;;;17.90;99.90;;;;;;5052745;28;20498;-80
2021/06/19 14:18:40;;;;;;;18.30;11.43;;;17.90;99.90;;;;;;5048225;28;20752;-81
2021/06/19 14:21:07;;;;;;;15.85;10.48;;;17.80;99.90;;;;;;5070763;28;20139;-81
2021/06/19 14:23:35;;;;;;;14.35;9.98;;;17.80;99.90;;;;;;5053160;28;20041;-80
2021/06/19 14:26:02;;;;;;;18.25;11.15;;;17.80;99.90;;;;;;5078008;28;20040;-81
2021/06/19 14:28:29;;;;;;;18.20;10.13;;;17.80;99.90;;;;;;5062983;28;20058;-81
2021/06/19 14:30:56;;;;;;;15.32;10.30;;;17.80;99.90;;;;;;5050567;28;20186;-83
2021/06/19 14:33:21;;;;;;;20.02;12.15;;;17.80;99.90;;;;;;5035442;28;20483;-82
2021/06/19 14:35:47;;;;;;;16.17;11.32;;;17.80;99.90;;;;;;5050159;28;20043;-81
2021/06/19 14:38:16;;;;;;;16.20;10.77;;;17.80;99.90;;;;;;5070178;28;20190;-81
2021/06/19 14:40:43;;;;;;;18.95;12.40;;;17.80;99.90;;;;;;5063348;28;20059;-81
2021/06/19 14:43:10;;;;;;;19.05;12.05;;;17.70;99.90;;;;;;5064436;28;20044;-81
2021/06/19 14:45:36;;;;;;;18.38;12.25;;;17.80;99.90;;;;;;5065583;28;20829;-81
2021/06/19 14:48:03;;;;;;;21.13;12.88;;;17.70;99.90;;;;;;5074377;28;20516;-84
2021/06/19 14:50:29;;;;;;;16.48;11.57;;;17.80;99.90;;;;;;5071566;28;20464;-80
2021/06/19 14:52:55;;;;;;;16.38;12.48;;;17.80;99.90;;;;;;5068827;28;20748;-81
2021/06/19 14:55:21;;;;;;;17.80;11.98;;;17.80;99.90;;;;;;5033010;28;20052;-81
2021/06/19 14:57:48;;;;;;;16.15;11.23;;;17.80;99.90;;;;;;5051040;28;20046;-81
2021/06/19 15:00:16;;;;;;;17.30;12.40;;;17.80;99.90;;;;;;5085666;28;20063;-81
2021/06/19 15:02:42;;;;;;;14.98;11.68;;;17.80;99.90;;;;;;5067525;28;20056;-80
2021/06/19 15:05:10;;;;;;;21.08;13.07;;;17.80;99.90;;;;;;5081466;28;20070;-81
2021/06/19 15:07:36;;;;;;;16.10;12.05;;;17.90;99.90;;;;;;5085131;28;20044;-81
2021/06/19 15:10:04;;;;;;;18.83;12.75;;;17.90;99.90;;;;;;5051717;28;20055;-80
2021/06/19 15:12:30;;;;;;;19.33;12.43;;;17.90;99.90;;;;;;5069113;28;20102;-81
2021/06/19 15:14:55;;;;;;;22.10;13.23;;;17.90;99.90;;;;;;5032484;28;20056;-81
2021/06/19 15:17:22;;;;;;;21.40;12.65;;;17.80;99.90;;;;;;5053534;28;20036;-81
2021/06/19 15:19:48;;;;;;;21.80;13.18;;;17.80;99.90;;;;;;5055256;28;20130;-81
2021/06/19 15:22:14;;;;;;;21.88;13.45;;;17.80;99.90;;;;;;5043381;28;20127;-81
2021/06/19 15:24:40;;;;;;;20.48;13.23;;;17.80;99.90;;;;;;5073399;28;20051;-81
2021/06/19 15:27:12;;;;;;;27.40;13.57;;;17.80;99.90;;;;;;5051426;28;20036;-81
2021/06/19 15:29:58;;;;;;;20.58;13.48;;;17.80;99.90;;;;;;5066756;28;20043;-81
2021/06/19 15:32:25;;;;;;;27.65;15.00;;;17.80;99.90;;;;;;5071981;28;20044;-81
2021/06/19 15:34:52;;;;;;;22.27;15.18;;;17.80;99.90;;;;;;5070075;28;20050;-82
2021/06/19 15:37:17;;;;;;;24.25;15.68;;;17.80;99.90;;;;;;5077499;28;20123;-81
2021/06/19 15:39:43;;;;;;;25.95;16.48;;;17.80;99.90;;;;;;5049913;28;20151;-81
2021/06/19 15:42:10;;;;;;;30.63;17.02;;;17.80;99.90;;;;;;5063458;28;20048;-81
2021/06/19 15:44:36;;;;;;;25.92;15.85;;;17.70;99.90;;;;;;5056475;28;20040;-81
2021/06/19 15:47:02;;;;;;;27.48;15.85;;;17.80;99.90;;;;;;5069587;28;20040;-82
2021/06/19 15:49:31;;;;;;;27.80;17.40;;;17.70;99.90;;;;;;5063442;28;20044;-81
2021/06/19 15:51:57;;;;;;;26.67;16.63;;;17.70;99.90;;;;;;5048702;28;20053;-81
2021/06/19 15:54:23;;;;;;;25.80;15.43;;;17.70;99.90;;;;;;5067463;28;20110;-81
2021/06/19 15:56:49;;;;;;;27.75;16.17;;;17.80;99.90;;;;;;5072869;28;20040;-81
2021/06/19 15:59:15;;;;;;;23.67;14.65;;;17.80;99.90;;;;;;5058941;28;20052;-81
2021/06/19 16:01:41;;;;;;;24.17;15.63;;;17.80;99.90;;;;;;5052999;28;20071;-82
2021/06/19 16:04:07;;;;;;;26.83;15.82;;;17.70;99.90;;;;;;5079931;28;20492;-82
2021/06/19 16:06:34;;;;;;;28.38;16.02;;;17.80;99.90;;;;;;5048351;28;20110;-82
2021/06/19 16:09:01;;;;;;;28.92;16.65;;;17.80;99.90;;;;;;5074790;28;20040;-82
2021/06/19 16:11:27;;;;;;;24.27;15.48;;;17.80;99.90;;;;;;5069280;28;20087;-82
2021/06/19 16:13:53;;;;;;;25.00;15.93;;;17.70;99.90;;;;;;5076688;28;20040;-82
2021/06/19 16:16:19;;;;;;;21.02;15.18;;;17.70;99.90;;;;;;5083802;28;20155;-82
2021/06/19 16:18:45;;;;;;;27.17;15.85;;;17.70;99.90;;;;;;5068006;28;20495;-81
2021/06/19 16:21:11;;;;;;;25.85;15.75;;;17.70;99.90;;;;;;5068833;28;20106;-81
2021/06/19 16:23:36;;;;;;;27.58;16.80;;;17.70;99.90;;;;;;5084192;28;20510;-81
2021/06/19 16:26:05;;;;;;;26.23;15.95;;;17.70;99.90;;;;;;5085014;28;20115;-83
2021/06/19 16:28:35;;;;;;;23.73;16.38;;;17.80;99.90;;;;;;5067287;28;20055;-82
2021/06/19 16:31:02;;;;;;;26.35;15.68;;;17.90;99.90;;;;;;5080256;28;20064;-82
2021/06/19 16:33:28;;;;;;;26.17;15.68;;;17.80;99.90;;;;;;5072465;28;20045;-81
2021/06/19 16:35:54;;;;;;;29.48;16.50;;;17.90;99.90;;;;;;5053245;28;20098;-82
2021/06/19 16:38:20;;;;;;;27.45;15.55;;;17.80;99.90;;;;;;5053601;28;20052;-82
2021/06/19 16:40:46;;;;;;;25.40;16.15;;;17.80;99.90;;;;;;5059622;28;20044;-82
2021/06/19 16:43:12;;;;;;;25.73;15.02;;;17.80;99.90;;;;;;5055004;28;20037;-82
2021/06/19 16:45:37;;;;;;;24.58;15.63;;;17.80;99.90;;;;;;5058563;28;20044;-82
2021/06/19 16:48:04;;;;;;;27.10;16.40;;;17.80;99.90;;;;;;5060065;28;20050;-82
2021/06/19 16:50:30;;;;;;;31.40;16.17;;;17.80;99.90;;;;;;5060030;28;20492;-82
2021/06/19 16:52:59;;;;;;;26.45;16.13;;;17.80;99.90;;;;;;5017178;28;20076;-82
2021/06/19 16:55:26;;;;;;;23.67;14.55;;;17.80;99.90;;;;;;5050214;28;20058;-82
2021/06/19 16:57:53;;;;;;;28.63;15.10;;;17.80;99.90;;;;;;5077267;28;20037;-82
2021/06/19 17:00:19;;;;;;;31.30;15.45;;;17.80;99.90;;;;;;5064058;28;20059;-82
2021/06/19 17:02:44;;;;;;;23.05;15.15;;;17.90;99.90;;;;;;5050466;28;20543;-82
2021/06/19 17:05:11;;;;;;;27.60;16.92;;;17.90;99.90;;;;;;5063624;28;20056;-82
2021/06/19 17:07:38;;;;;;;29.08;15.48;;;17.90;99.90;;;;;;5050676;28;20079;-82
2021/06/19 17:10:05;;;;;;;27.73;15.18;;;17.90;99.90;;;;;;5066596;28;20478;-82
2021/06/19 17:12:31;;;;;;;32.85;15.25;;;17.80;99.90;;;;;;5071606;28;20098;-82
2021/06/19 17:14:57;;;;;;;27.17;14.38;;;17.80;99.90;;;;;;5052717;28;20048;-82
2021/06/19 17:17:23;;;;;;;24.80;14.52;;;17.70;99.90;;;;;;5055331;28;20040;-82
2021/06/19 17:19:49;;;;;;;28.30;15.57;;;17.80;99.90;;;;;;5086611;28;20036;-82
2021/06/19 17:22:15;;;;;;;26.17;14.77;;;17.80;99.90;;;;;;5084650;28;20071;-82
2021/06/19 17:24:41;;;;;;;28.20;15.25;;;17.80;99.90;;;;;;5074298;28;20586;-82
2021/06/19 17:27:07;;;;;;;30.73;15.60;;;17.90;99.90;;;;;;5055901;28;20044;-82
2021/06/19 17:29:33;;;;;;;25.95;14.63;;;17.80;99.90;;;;;;5052266;28;20045;-83
2021/06/19 17:31:59;;;;;;;26.98;14.32;;;17.70;99.90;;;;;;5038495;28;20053;-82
2021/06/19 17:34:25;;;;;;;34.13;16.23;;;17.70;99.90;;;;;;5051716;28;20770;-83
2021/06/19 17:36:51;;;;;;;27.83;15.63;;;17.70;99.90;;;;;;5059591;28;20043;-83
2021/06/19 17:39:17;;;;;;;30.92;16.08;;;17.70;99.90;;;;;;5059943;28;20416;-83
2021/06/19 17:41:43;;;;;;;32.15;15.40;;;17.70;99.90;;;;;;5052350;28;20415;-82
2021/06/19 17:44:09;;;;;;;33.40;15.18;;;17.70;99.90;;;;;;5032867;28;20059;-83
2021/06/19 17:46:35;;;;;;;27.90;14.10;;;17.60;99.90;;;;;;5072765;28;20040;-83
2021/06/19 17:49:01;;;;;;;34.58;14.98;;;17.60;99.90;;;;;;5074390;28;20033;-82
2021/06/19 17:51:27;;;;;;;35.80;16.33;;;17.60;99.90;;;;;;5072418;28;20046;-82
2021/06/19 17:53:53;;;;;;;34.28;18.52;;;17.50;99.90;;;;;;5070425;28;20045;-83
2021/06/19 17:56:19;;;;;;;36.97;17.05;;;17.50;99.90;;;;;;5049864;28;20060;-82
2021/06/19 17:58:45;;;;;;;31.42;14.57;;;17.60;99.90;;;;;;5052734;28;20127;-83
2021/06/19 18:01:11;;;;;;;30.20;16.02;;;17.60;99.90;;;;;;5057775;28;20178;-82
2021/06/19 18:03:37;;;;;;;45.97;19.10;;;17.60;99.90;;;;;;5066304;28;20503;-82
2021/06/19 18:06:04;;;;;;;37.97;16.10;;;17.60;99.90;;;;;;5074444;28;20040;-81
2021/06/19 18:08:34;;;;;;;34.30;15.60;;;17.70;99.90;;;;;;5059401;28;20131;-82
2021/06/19 18:11:01;;;;;;;35.38;15.48;;;17.70;99.90;;;;;;5074115;28;20045;-81
2021/06/19 18:13:27;;;;;;;33.63;15.23;;;17.70;99.90;;;;;;5076606;28;20050;-82
2021/06/19 18:15:53;;;;;;;32.42;16.15;;;17.60;99.90;;;;;;5070529;28;20123;-82
2021/06/19 18:18:20;;;;;;;32.90;17.63;;;17.60;99.90;;;;;;5044489;28;20098;-82
2021/06/19 18:20:48;;;;;;;30.00;15.57;;;17.60;99.90;;;;;;5059174;28;20072;-82
2021/06/19 18:23:14;;;;;;;26.63;15.48;;;17.70;99.90;;;;;;5036903;28;20407;-82
2021/06/19 18:25:43;;;;;;;31.65;15.30;;;17.70;99.90;;;;;;5056466;28;20055;-81
2021/06/19 18:28:09;;;;;;;28.83;16.40;;;17.70;99.90;;;;;;5043064;28;20068;-81
2021/06/19 18:30:36;;;;;;;28.70;16.23;;;17.70;99.90;;;;;;5048496;28;20123;-81
2021/06/19 18:33:06;;;;;;;31.42;18.45;;;17.70;99.90;;;;;;5058094;28;20582;-82
2021/06/19 18:35:32;;;;;;;30.23;15.63;;;17.60;99.90;;;;;;5061450;28;20040;-81
2021/06/19 18:37:59;;;;;;;28.48;15.55;;;17.60;99.90;;;;;;5079284;28;20067;-82
2021/06/19 18:40:25;;;;;;;29.95;15.63;;;17.60;99.90;;;;;;5061396;28;20055;-81
2021/06/19 18:42:52;;;;;;;30.38;18.25;;;17.60;99.90;;;;;;5049521;28;20052;-82
2021/06/19 18:45:17;;;;;;;29.60;14.35;;;17.60;99.90;;;;;;5082949;28;20066;-82
2021/06/19 18:47:44;;;;;;;30.42;14.63;;;17.50;99.90;;;;;;5058935;28;20040;-82
2021/06/19 18:50:12;;;;;;;22.13;12.98;;;17.50;99.90;;;;;;5085103;28;20044;-82
2021/06/19 18:52:40;;;;;;;23.50;13.07;;;17.40;99.90;;;;;;5083737;28;20101;-83
2021/06/19 18:55:08;;;;;;;23.98;13.73;;;17.40;99.90;;;;;;5067440;28;20510;-82
2021/06/19 18:57:36;;;;;;;23.85;13.55;;;17.40;99.90;;;;;;5049359;28;20110;-82
2021/06/19 19:00:07;;;;;;;25.35;13.50;;;17.40;99.90;;;;;;5083688;28;20511;-82
2021/06/19 19:02:33;;;;;;;28.17;14.40;;;17.40;99.90;;;;;;5052166;28;20063;-82
2021/06/19 19:05:00;;;;;;;24.45;13.00;;;17.40;99.90;;;;;;5078196;28;20044;-82
2021/06/19 19:07:27;;;;;;;26.83;13.95;;;17.30;99.90;;;;;;5042375;28;20143;-82
2021/06/19 19:09:54;;;;;;;26.52;14.48;;;17.30;99.90;;;;;;5063392;28;20506;-82
2021/06/19 19:12:22;;;;;;;24.38;13.55;;;17.30;99.90;;;;;;5062612;28;20050;-82
2021/06/19 19:14:49;;;;;;;23.00;13.57;;;17.30;99.90;;;;;;5054591;28;20506;-81
2021/06/19 19:17:15;;;;;;;27.95;14.10;;;17.40;99.90;;;;;;5047536;28;20117;-82
2021/06/19 19:19:43;;;;;;;30.05;16.63;;;17.40;99.90;;;;;;5055073;28;20071;-81
2021/06/19 19:22:10;;;;;;;33.78;15.50;;;17.30;99.90;;;;;;5080849;28;20062;-82
2021/06/19 19:24:37;;;;;;;38.20;19.98;;;17.30;99.90;;;;;;5080874;28;20048;-82
2021/06/19 19:27:06;;;;;;;31.45;17.23;;;17.30;99.90;;;;;;5051198;28;20044;-82
2021/06/19 19:29:34;;;;;;;33.70;16.85;;;17.40;99.90;;;;;;5059536;28;20041;-81
2021/06/19 19:32:05;;;;;;;37.17;16.95;;;17.40;99.90;;;;;;5054946;28;20044;-82
2021/06/19 19:34:35;;;;;;;28.33;15.27;;;17.40;99.90;;;;;;5056673;28;20112;-81
2021/06/19 19:37:04;;;;;;;28.92;15.32;;;17.40;99.90;;;;;;5047281;28;20055;-82
2021/06/19 19:39:31;;;;;;;27.75;15.35;;;17.40;99.90;;;;;;5074883;28;20044;-82
2021/06/19 19:41:57;;;;;;;28.30;14.88;;;17.40;99.90;;;;;;5043044;28;20522;-82
2021/06/19 19:44:26;;;;;;;25.10;14.77;;;17.40;99.90;;;;;;5050838;28;20052;-82
2021/06/19 19:46:55;;;;;;;22.88;13.50;;;17.40;99.90;;;;;;5045425;28;20097;-81
2021/06/19 19:49:22;;;;;;;23.58;14.50;;;17.40;99.90;;;;;;5051826;28;20071;-81
2021/06/19 19:51:48;;;;;;;21.27;12.77;;;17.40;99.90;;;;;;5064458;28;20515;-81
2021/06/19 19:54:14;;;;;;;26.95;13.35;;;17.40;99.90;;;;;;5066325;28;20053;-81
2021/06/19 19:56:40;;;;;;;26.45;13.68;;;17.40;99.90;;;;;;5010772;28;20055;-81
2021/06/19 19:59:06;;;;;;;25.50;13.80;;;17.40;99.90;;;;;;5063430;28;20079;-81
2021/06/19 20:01:32;;;;;;;26.85;13.68;;;17.40;99.90;;;;;;5020000;28;20484;-81
2021/06/19 20:03:58;;;;;;;30.00;14.65;;;17.40;99.90;;;;;;5065412;28;20036;-81
2021/06/19 20:06:24;;;;;;;25.83;14.13;;;17.40;99.90;;;;;;5081243;28;20499;-81
2021/06/19 20:08:51;;;;;;;30.10;14.57;;;17.30;99.90;;;;;;5041340;28;20059;-81
2021/06/19 20:11:18;;;;;;;26.02;14.55;;;17.40;99.90;;;;;;5053609;28;20053;-81
2021/06/19 20:13:45;;;;;;;30.38;14.32;;;17.40;99.90;;;;;;5034916;28;20766;-81
2021/06/19 20:16:11;;;;;;;24.98;13.25;;;17.40;99.90;;;;;;5072206;28;20051;-81
2021/06/19 20:18:38;;;;;;;24.77;12.90;;;17.40;99.90;;;;;;5057360;28;20044;-81
2021/06/19 20:21:04;;;;;;;26.10;13.75;;;17.40;99.90;;;;;;5023762;28;20048;-81
2021/06/19 20:23:30;;;;;;;24.60;13.40;;;17.30;99.90;;;;;;5040956;28;20052;-81
2021/06/19 20:25:56;;;;;;;29.20;14.07;;;17.40;99.90;;;;;;5037885;28;20155;-81
2021/06/19 20:28:22;;;;;;;24.45;13.23;;;17.40;99.90;;;;;;5090138;28;20471;-81
2021/06/19 20:30:48;;;;;;;20.33;11.25;;;17.40;99.90;;;;;;5046947;28;20099;-81
2021/06/19 20:33:15;;;;;;;21.88;11.65;;;17.40;99.90;;;;;;5076402;28;20043;-81
2021/06/19 20:35:40;;;;;;;21.60;12.10;;;17.40;99.90;;;;;;5075055;28;20127;-81
2021/06/19 20:38:07;;;;;;;19.05;11.50;;;17.30;99.90;;;;;;5044167;28;20130;-81